sensor_id;sensor_type;location;lat;lon;timestamp;temperature;humidity
68109;SHT30;54893;49.864;19.084;2023-06-04T00:00:47;8.11;70.44
68109;SHT30;54893;49.864;19.084;2023-06-04T00:05:47;8.04;74.80
68109;SHT30;54893;49.864;19.084;2023-06-04T00:10:47;7.97;75.30
68109;SHT30;54893;49.864;19.084;2023-06-04T00:15:48;7.90;78.01
68109;SHT30;54893;49.864;19.084;2023-06-04T00:20:48;7.71;77.53
68109;SHT30;54893;49.864;19.084;2023-06-04T00:25:49;7.60;79.01
68109;SHT30;54893;49.864;19.084;2023-06-04T00:30:49;7.49;80.59
68109;SHT30;54893;49.864;19.084;2023-06-04T00:35:49;7.33;82.89
68109;SHT30;54893;49.864;19.084;2023-06-04T00:40:50;7.17;80.82
68109;SHT30;54893;49.864;19.084;2023-06-04T00:45:51;7.07;80.43
68109;SHT30;54893;49.864;19.084;2023-06-04T00:50:52;6.95;83.18
68109;SHT30;54893;49.864;19.084;2023-06-04T00:55:52;7.03;85.45
68109;SHT30;54893;49.864;19.084;2023-06-04T01:00:54;6.88;84.26
68109;SHT30;54893;49.864;19.084;2023-06-04T01:11:38;6.61;81.50
68109;SHT30;54893;49.864;19.084;2023-06-04T01:17:21;6.62;85.59
68109;SHT30;54893;49.864;19.084;2023-06-04T01:22:18;6.56;85.16
68109;SHT30;54893;49.864;19.084;2023-06-04T01:27:22;6.49;83.72
68109;SHT30;54893;49.864;19.084;2023-06-04T01:32:23;6.55;83.58
68109;SHT30;54893;49.864;19.084;2023-06-04T01:37:24;6.45;84.55
68109;SHT30;54893;49.864;19.084;2023-06-04T01:42:24;6.42;77.89
68109;SHT30;54893;49.864;19.084;2023-06-04T01:47:25;6.41;86.41
68109;SHT30;54893;49.864;19.084;2023-06-04T01:52:25;6.39;82.34
68109;SHT30;54893;49.864;19.084;2023-06-04T01:57:26;6.35;84.73
68109;SHT30;54893;49.864;19.084;2023-06-04T02:02:27;6.27;87.43
68109;SHT30;54893;49.864;19.084;2023-06-04T02:07:27;6.17;87.83
68109;SHT30;54893;49.864;19.084;2023-06-04T02:12:28;6.17;88.09
68109;SHT30;54893;49.864;19.084;2023-06-04T02:17:28;6.25;88.51
68109;SHT30;54893;49.864;19.084;2023-06-04T02:22:32;6.22;88.94
68109;SHT30;54893;49.864;19.084;2023-06-04T02:27:32;6.05;79.83
68109;SHT30;54893;49.864;19.084;2023-06-04T02:32:33;6.13;89.28
68109;SHT30;54893;49.864;19.084;2023-06-04T02:37:36;5.93;81.10
68109;SHT30;54893;49.864;19.084;2023-06-04T02:42:36;5.84;78.70
68109;SHT30;54893;49.864;19.084;2023-06-04T02:47:37;5.94;92.34
68109;SHT30;54893;49.864;19.084;2023-06-04T02:52:37;5.95;91.07
68109;SHT30;54893;49.864;19.084;2023-06-04T02:57:40;6.08;90.96
68109;SHT30;54893;49.864;19.084;2023-06-04T03:02:43;6.20;88.10
68109;SHT30;54893;49.864;19.084;2023-06-04T03:07:44;6.20;81.88
68109;SHT30;54893;49.864;19.084;2023-06-04T03:12:45;6.22;91.06
68109;SHT30;54893;49.864;19.084;2023-06-04T03:17:46;6.15;88.59
68109;SHT30;54893;49.864;19.084;2023-06-04T03:22:46;6.20;89.93
68109;SHT30;54893;49.864;19.084;2023-06-04T03:27:46;6.27;91.30
68109;SHT30;54893;49.864;19.084;2023-06-04T03:32:47;6.31;92.41
68109;SHT30;54893;49.864;19.084;2023-06-04T03:37:47;6.35;89.28
68109;SHT30;54893;49.864;19.084;2023-06-04T03:42:48;6.48;90.50
68109;SHT30;54893;49.864;19.084;2023-06-04T03:47:48;6.62;90.08
68109;SHT30;54893;49.864;19.084;2023-06-04T03:52:49;6.82;90.97
68109;SHT30;54893;49.864;19.084;2023-06-04T03:57:49;6.97;91.24
68109;SHT30;54893;49.864;19.084;2023-06-04T04:02:50;7.22;90.95
68109;SHT30;54893;49.864;19.084;2023-06-04T04:07:50;7.47;89.67
68109;SHT30;54893;49.864;19.084;2023-06-04T04:12:51;7.87;88.02
68109;SHT30;54893;49.864;19.084;2023-06-04T04:17:55;8.48;86.31
68109;SHT30;54893;49.864;19.084;2023-06-04T04:22:55;8.97;84.97
68109;SHT30;54893;49.864;19.084;2023-06-04T04:27:56;9.46;82.75
68109;SHT30;54893;49.864;19.084;2023-06-04T04:32:56;9.82;81.25
68109;SHT30;54893;49.864;19.084;2023-06-04T04:37:56;10.63;79.98
68109;SHT30;54893;49.864;19.084;2023-06-04T04:42:58;10.80;78.88
68109;SHT30;54893;49.864;19.084;2023-06-04T04:47:58;11.02;77.73
68109;SHT30;54893;49.864;19.084;2023-06-04T04:52:58;11.73;76.81
68109;SHT30;54893;49.864;19.084;2023-06-04T04:57:59;12.25;74.81
68109;SHT30;54893;49.864;19.084;2023-06-04T05:02:59;12.15;74.72
68109;SHT30;54893;49.864;19.084;2023-06-04T05:08:00;12.50;73.89
68109;SHT30;54893;49.864;19.084;2023-06-04T05:13:00;12.65;73.83
68109;SHT30;54893;49.864;19.084;2023-06-04T05:18:02;13.12;72.11
68109;SHT30;54893;49.864;19.084;2023-06-04T05:23:03;14.09;71.02
68109;SHT30;54893;49.864;19.084;2023-06-04T05:28:04;14.55;69.21
68109;SHT30;54893;49.864;19.084;2023-06-04T05:33:07;15.07;68.13
68109;SHT30;54893;49.864;19.084;2023-06-04T05:38:18;15.27;68.70
68109;SHT30;54893;49.864;19.084;2023-06-04T05:43:18;14.82;67.85
68109;SHT30;54893;49.864;19.084;2023-06-04T05:48:19;14.80;70.17
68109;SHT30;54893;49.864;19.084;2023-06-04T05:53:19;15.33;67.14
68109;SHT30;54893;49.864;19.084;2023-06-04T05:58:20;15.53;67.68
68109;SHT30;54893;49.864;19.084;2023-06-04T06:03:20;15.84;67.53
68109;SHT30;54893;49.864;19.084;2023-06-04T06:08:21;16.04;66.47
68109;SHT30;54893;49.864;19.084;2023-06-04T06:13:22;16.14;65.48
68109;SHT30;54893;49.864;19.084;2023-06-04T06:18:22;16.52;65.79
68109;SHT30;54893;49.864;19.084;2023-06-04T06:23:22;16.72;66.07
68109;SHT30;54893;49.864;19.084;2023-06-04T06:28:24;16.69;63.83
68109;SHT30;54893;49.864;19.084;2023-06-04T06:33:25;16.04;65.00
68109;SHT30;54893;49.864;19.084;2023-06-04T06:38:26;17.37;62.65
68109;SHT30;54893;49.864;19.084;2023-06-04T06:43:27;17.16;61.80
68109;SHT30;54893;49.864;19.084;2023-06-04T06:48:27;16.53;62.47
68109;SHT30;54893;49.864;19.084;2023-06-04T06:53:28;17.24;61.47
68109;SHT30;54893;49.864;19.084;2023-06-04T06:58:28;18.59;58.62
68109;SHT30;54893;49.864;19.084;2023-06-04T07:03:28;19.03;58.52
68109;SHT30;54893;49.864;19.084;2023-06-04T07:08:29;18.91;55.11
68109;SHT30;54893;49.864;19.084;2023-06-04T07:13:29;18.38;57.36
68109;SHT30;54893;49.864;19.084;2023-06-04T07:18:32;19.77;57.89
68109;SHT30;54893;49.864;19.084;2023-06-04T07:23:33;20.05;55.88
68109;SHT30;54893;49.864;19.084;2023-06-04T07:28:33;19.66;54.63
68109;SHT30;54893;49.864;19.084;2023-06-04T07:33:34;20.71;55.29
68109;SHT30;54893;49.864;19.084;2023-06-04T07:38:34;21.27;53.41
68109;SHT30;54893;49.864;19.084;2023-06-04T07:43:34;20.18;54.64
68109;SHT30;54893;49.864;19.084;2023-06-04T07:48:35;20.58;51.98
68109;SHT30;54893;49.864;19.084;2023-06-04T07:53:35;21.24;52.82
68109;SHT30;54893;49.864;19.084;2023-06-04T07:58:36;20.98;51.08
68109;SHT30;54893;49.864;19.084;2023-06-04T08:03:36;20.36;50.07
68109;SHT30;54893;49.864;19.084;2023-06-04T08:08:37;21.09;50.65
68109;SHT30;54893;49.864;19.084;2023-06-04T08:13:39;20.72;48.50
68109;SHT30;54893;49.864;19.084;2023-06-04T08:18:40;21.26;51.31
68109;SHT30;54893;49.864;19.084;2023-06-04T08:23:41;21.37;51.14
68109;SHT30;54893;49.864;19.084;2023-06-04T08:28:41;20.93;51.58
68109;SHT30;54893;49.864;19.084;2023-06-04T08:33:42;21.67;50.36
68109;SHT30;54893;49.864;19.084;2023-06-04T08:38:42;20.31;50.99
68109;SHT30;54893;49.864;19.084;2023-06-04T08:43:43;21.39;49.98
68109;SHT30;54893;49.864;19.084;2023-06-04T08:48:49;20.92;49.85
68109;SHT30;54893;49.864;19.084;2023-06-04T08:53:50;21.02;50.72
68109;SHT30;54893;49.864;19.084;2023-06-04T08:58:56;21.61;50.14
68109;SHT30;54893;49.864;19.084;2023-06-04T09:04:03;22.49;48.74
68109;SHT30;54893;49.864;19.084;2023-06-04T09:09:08;23.10;49.22
68109;SHT30;54893;49.864;19.084;2023-06-04T09:14:11;22.02;48.24
68109;SHT30;54893;49.864;19.084;2023-06-04T09:19:14;21.19;48.83
68109;SHT30;54893;49.864;19.084;2023-06-04T09:24:15;22.47;48.62
68109;SHT30;54893;49.864;19.084;2023-06-04T09:29:16;21.88;48.27
68109;SHT30;54893;49.864;19.084;2023-06-04T09:34:27;22.20;48.59
68109;SHT30;54893;49.864;19.084;2023-06-04T09:39:27;23.26;47.48
68109;SHT30;54893;49.864;19.084;2023-06-04T09:44:31;21.47;47.83
68109;SHT30;54893;49.864;19.084;2023-06-04T09:49:40;22.55;47.47
68109;SHT30;54893;49.864;19.084;2023-06-04T09:54:41;22.20;48.22
68109;SHT30;54893;49.864;19.084;2023-06-04T09:59:44;22.20;47.77
68109;SHT30;54893;49.864;19.084;2023-06-04T10:04:49;22.07;47.17
68109;SHT30;54893;49.864;19.084;2023-06-04T10:09:52;23.20;46.81
68109;SHT30;54893;49.864;19.084;2023-06-04T10:14:56;23.38;46.37
68109;SHT30;54893;49.864;19.084;2023-06-04T10:20:01;23.71;45.51
68109;SHT30;54893;49.864;19.084;2023-06-04T10:25:02;22.58;47.07
68109;SHT30;54893;49.864;19.084;2023-06-04T10:30:04;22.71;47.47
68109;SHT30;54893;49.864;19.084;2023-06-04T10:35:05;22.68;45.33
68109;SHT30;54893;49.864;19.084;2023-06-04T10:40:09;23.22;46.66
68109;SHT30;54893;49.864;19.084;2023-06-04T10:45:10;23.38;45.97
68109;SHT30;54893;49.864;19.084;2023-06-04T10:50:12;22.79;45.78
68109;SHT30;54893;49.864;19.084;2023-06-04T10:55:12;22.94;46.18
68109;SHT30;54893;49.864;19.084;2023-06-04T11:00:13;22.08;46.85
68109;SHT30;54893;49.864;19.084;2023-06-04T11:05:15;22.35;46.18
68109;SHT30;54893;49.864;19.084;2023-06-04T11:10:16;23.10;46.96
68109;SHT30;54893;49.864;19.084;2023-06-04T11:15:17;23.13;46.21
68109;SHT30;54893;49.864;19.084;2023-06-04T11:20:19;23.15;46.28
68109;SHT30;54893;49.864;19.084;2023-06-04T11:25:20;23.38;44.83
68109;SHT30;54893;49.864;19.084;2023-06-04T11:30:23;24.24;45.92
68109;SHT30;54893;49.864;19.084;2023-06-04T11:35:23;23.74;46.31
68109;SHT30;54893;49.864;19.084;2023-06-04T11:40:24;24.34;45.54
68109;SHT30;54893;49.864;19.084;2023-06-04T11:45:27;24.06;45.01
68109;SHT30;54893;49.864;19.084;2023-06-04T11:50:31;23.98;46.04
68109;SHT30;54893;49.864;19.084;2023-06-04T11:55:31;23.90;44.93
68109;SHT30;54893;49.864;19.084;2023-06-04T12:00:32;24.25;45.23
68109;SHT30;54893;49.864;19.084;2023-06-04T12:05:33;24.11;44.99
68109;SHT30;54893;49.864;19.084;2023-06-04T12:10:41;23.59;44.27
68109;SHT30;54893;49.864;19.084;2023-06-04T12:15:42;24.14;43.90
68109;SHT30;54893;49.864;19.084;2023-06-04T12:20:42;24.64;43.77
68109;SHT30;54893;49.864;19.084;2023-06-04T12:25:42;23.69;42.93
68109;SHT30;54893;49.864;19.084;2023-06-04T12:30:43;23.53;44.21
68109;SHT30;54893;49.864;19.084;2023-06-04T12:35:44;23.22;44.91
68109;SHT30;54893;49.864;19.084;2023-06-04T12:40:45;23.64;44.80
68109;SHT30;54893;49.864;19.084;2023-06-04T12:45:45;24.20;43.26
68109;SHT30;54893;49.864;19.084;2023-06-04T12:50:46;24.27;43.94
68109;SHT30;54893;49.864;19.084;2023-06-04T12:55:46;24.37;43.14
68109;SHT30;54893;49.864;19.084;2023-06-04T13:00:47;24.64;43.43
68109;SHT30;54893;49.864;19.084;2023-06-04T13:05:47;24.14;43.67
68109;SHT30;54893;49.864;19.084;2023-06-04T13:10:49;24.04;43.62
68109;SHT30;54893;49.864;19.084;2023-06-04T13:15:49;24.96;44.45
68109;SHT30;54893;49.864;19.084;2023-06-04T13:20:50;25.26;43.50
68109;SHT30;54893;49.864;19.084;2023-06-04T13:25:51;23.94;44.25
68109;SHT30;54893;49.864;19.084;2023-06-04T13:30:51;25.09;42.09
68109;SHT30;54893;49.864;19.084;2023-06-04T13:35:51;25.47;42.71
68109;SHT30;54893;49.864;19.084;2023-06-04T13:40:52;24.03;43.04
68109;SHT30;54893;49.864;19.084;2023-06-04T13:45:52;24.92;42.22
68109;SHT30;54893;49.864;19.084;2023-06-04T13:50:53;25.01;41.33
68109;SHT30;54893;49.864;19.084;2023-06-04T13:55:53;24.96;41.33
68109;SHT30;54893;49.864;19.084;2023-06-04T14:00:58;24.92;41.54
68109;SHT30;54893;49.864;19.084;2023-06-04T14:05:59;28.78;37.94
68109;SHT30;54893;49.864;19.084;2023-06-04T14:10:59;27.22;39.39
68109;SHT30;54893;49.864;19.084;2023-06-04T14:16:00;28.23;36.24
68109;SHT30;54893;49.864;19.084;2023-06-04T14:21:00;29.12;34.53
68109;SHT30;54893;49.864;19.084;2023-06-04T14:26:01;32.30;35.38
68109;SHT30;54893;49.864;19.084;2023-06-04T14:31:01;35.13;31.12
68109;SHT30;54893;49.864;19.084;2023-06-04T14:36:01;36.37;33.63
68109;SHT30;54893;49.864;19.084;2023-06-04T14:41:02;34.09;33.10
68109;SHT30;54893;49.864;19.084;2023-06-04T14:46:03;30.65;37.58
68109;SHT30;54893;49.864;19.084;2023-06-04T14:51:04;25.22;39.03
68109;SHT30;54893;49.864;19.084;2023-06-04T14:56:07;29.04;37.57
68109;SHT30;54893;49.864;19.084;2023-06-04T15:01:08;33.03;31.25
68109;SHT30;54893;49.864;19.084;2023-06-04T15:06:10;35.95;31.23
68109;SHT30;54893;49.864;19.084;2023-06-04T15:11:10;33.38;31.09
68109;SHT30;54893;49.864;19.084;2023-06-04T15:16:11;30.09;33.36
68109;SHT30;54893;49.864;19.084;2023-06-04T15:21:12;31.82;30.65
68109;SHT30;54893;49.864;19.084;2023-06-04T15:26:12;32.29;31.02
68109;SHT30;54893;49.864;19.084;2023-06-04T15:31:13;32.12;30.66
68109;SHT30;54893;49.864;19.084;2023-06-04T15:36:13;33.24;30.50
68109;SHT30;54893;49.864;19.084;2023-06-04T15:41:14;31.59;31.43
68109;SHT30;54893;49.864;19.084;2023-06-04T15:46:14;32.40;28.44
68109;SHT30;54893;49.864;19.084;2023-06-04T15:51:14;35.03;27.79
68109;SHT30;54893;49.864;19.084;2023-06-04T15:56:15;34.23;29.87
68109;SHT30;54893;49.864;19.084;2023-06-04T16:01:16;35.19;30.10
68109;SHT30;54893;49.864;19.084;2023-06-04T16:06:16;34.09;28.86
68109;SHT30;54893;49.864;19.084;2023-06-04T16:11:16;36.11;27.71
68109;SHT30;54893;49.864;19.084;2023-06-04T16:16:17;35.91;27.88
68109;SHT30;54893;49.864;19.084;2023-06-04T16:21:17;34.93;28.95
68109;SHT30;54893;49.864;19.084;2023-06-04T16:26:18;33.23;29.35
68109;SHT30;54893;49.864;19.084;2023-06-04T16:31:18;34.49;27.97
68109;SHT30;54893;49.864;19.084;2023-06-04T16:36:18;34.12;28.92
68109;SHT30;54893;49.864;19.084;2023-06-04T16:41:21;31.27;29.84
68109;SHT30;54893;49.864;19.084;2023-06-04T16:46:23;33.98;29.65
68109;SHT30;54893;49.864;19.084;2023-06-04T16:51:24;31.99;31.32
68109;SHT30;54893;49.864;19.084;2023-06-04T16:56:24;31.81;31.61
68109;SHT30;54893;49.864;19.084;2023-06-04T17:01:25;32.63;31.03
68109;SHT30;54893;49.864;19.084;2023-06-04T17:06:25;30.87;32.23
68109;SHT30;54893;49.864;19.084;2023-06-04T17:11:27;26.82;36.14
68109;SHT30;54893;49.864;19.084;2023-06-04T17:16:27;24.89;37.91
68109;SHT30;54893;49.864;19.084;2023-06-04T17:21:28;23.56;39.15
68109;SHT30;54893;49.864;19.084;2023-06-04T17:26:29;23.73;40.49
68109;SHT30;54893;49.864;19.084;2023-06-04T17:31:30;28.43;36.20
68109;SHT30;54893;49.864;19.084;2023-06-04T17:36:31;28.98;34.34
68109;SHT30;54893;49.864;19.084;2023-06-04T17:41:31;29.01;34.39
68109;SHT30;54893;49.864;19.084;2023-06-04T17:46:32;29.18;35.04
68109;SHT30;54893;49.864;19.084;2023-06-04T17:51:32;28.97;37.28
68109;SHT30;54893;49.864;19.084;2023-06-04T17:56:33;28.32;37.28
68109;SHT30;54893;49.864;19.084;2023-06-04T18:01:33;27.43;39.97
68109;SHT30;54893;49.864;19.084;2023-06-04T18:06:33;27.18;38.74
68109;SHT30;54893;49.864;19.084;2023-06-04T18:11:34;25.97;39.75
68109;SHT30;54893;49.864;19.084;2023-06-04T18:16:34;24.54;41.22
68109;SHT30;54893;49.864;19.084;2023-06-04T18:21:35;22.02;45.71
68109;SHT30;54893;49.864;19.084;2023-06-04T18:26:35;20.61;48.23
68109;SHT30;54893;49.864;19.084;2023-06-04T18:31:35;19.61;49.52
68109;SHT30;54893;49.864;19.084;2023-06-04T18:36:36;18.92;51.31
68109;SHT30;54893;49.864;19.084;2023-06-04T18:41:36;18.24;52.20
68109;SHT30;54893;49.864;19.084;2023-06-04T18:46:37;17.78;52.79
68109;SHT30;54893;49.864;19.084;2023-06-04T18:51:37;17.40;53.61
68109;SHT30;54893;49.864;19.084;2023-06-04T18:56:40;17.06;53.49
68109;SHT30;54893;49.864;19.084;2023-06-04T19:01:41;16.95;53.21
68109;SHT30;54893;49.864;19.084;2023-06-04T19:06:42;16.61;54.91
68109;SHT30;54893;49.864;19.084;2023-06-04T19:11:42;16.48;52.87
68109;SHT30;54893;49.864;19.084;2023-06-04T19:16:43;16.45;52.27
68109;SHT30;54893;49.864;19.084;2023-06-04T19:21:46;16.35;51.41
68109;SHT30;54893;49.864;19.084;2023-06-04T19:26:48;16.12;53.91
68109;SHT30;54893;49.864;19.084;2023-06-04T19:31:48;15.83;55.99
68109;SHT30;54893;49.864;19.084;2023-06-04T19:36:49;15.54;56.91
68109;SHT30;54893;49.864;19.084;2023-06-04T19:41:49;15.29;56.93
68109;SHT30;54893;49.864;19.084;2023-06-04T19:46:50;15.09;58.77
68109;SHT30;54893;49.864;19.084;2023-06-04T19:51:50;14.96;59.58
68109;SHT30;54893;49.864;19.084;2023-06-04T19:56:51;14.85;60.66
68109;SHT30;54893;49.864;19.084;2023-06-04T20:01:51;14.69;61.15
68109;SHT30;54893;49.864;19.084;2023-06-04T20:06:51;14.58;57.91
68109;SHT30;54893;49.864;19.084;2023-06-04T20:11:52;14.59;57.26
68109;SHT30;54893;49.864;19.084;2023-06-04T20:16:53;14.48;60.05
68109;SHT30;54893;49.864;19.084;2023-06-04T20:21:53;14.24;58.46
68109;SHT30;54893;49.864;19.084;2023-06-04T20:26:54;14.05;59.83
68109;SHT30;54893;49.864;19.084;2023-06-04T20:31:57;13.95;60.85
68109;SHT30;54893;49.864;19.084;2023-06-04T20:36:57;13.88;61.93
68109;SHT30;54893;49.864;19.084;2023-06-04T20:42:02;13.82;60.40
68109;SHT30;54893;49.864;19.084;2023-06-04T20:47:03;13.79;62.11
68109;SHT30;54893;49.864;19.084;2023-06-04T20:52:05;13.71;60.62
68109;SHT30;54893;49.864;19.084;2023-06-04T20:57:05;13.66;61.76
68109;SHT30;54893;49.864;19.084;2023-06-04T21:02:06;13.53;62.30
68109;SHT30;54893;49.864;19.084;2023-06-04T21:07:06;13.43;62.07
68109;SHT30;54893;49.864;19.084;2023-06-04T21:12:07;13.32;62.44
68109;SHT30;54893;49.864;19.084;2023-06-04T21:17:07;13.19;63.26
68109;SHT30;54893;49.864;19.084;2023-06-04T21:22:07;13.07;63.38
68109;SHT30;54893;49.864;19.084;2023-06-04T21:27:08;12.97;62.50
68109;SHT30;54893;49.864;19.084;2023-06-04T21:32:08;12.90;63.02
68109;SHT30;54893;49.864;19.084;2023-06-04T21:37:09;12.76;62.98
68109;SHT30;54893;49.864;19.084;2023-06-04T21:42:09;12.63;63.96
68109;SHT30;54893;49.864;19.084;2023-06-04T21:47:10;12.53;65.01
68109;SHT30;54893;49.864;19.084;2023-06-04T21:52:10;12.44;65.00
68109;SHT30;54893;49.864;19.084;2023-06-04T21:57:11;12.26;66.14
68109;SHT30;54893;49.864;19.084;2023-06-04T22:02:11;12.22;63.66
68109;SHT30;54893;49.864;19.084;2023-06-04T22:07:11;12.21;61.68
68109;SHT30;54893;49.864;19.084;2023-06-04T22:12:12;12.21;66.01
68109;SHT30;54893;49.864;19.084;2023-06-04T22:17:12;12.14;66.05
68109;SHT30;54893;49.864;19.084;2023-06-04T22:22:13;12.25;61.17
68109;SHT30;54893;49.864;19.084;2023-06-04T22:27:13;12.39;60.51
68109;SHT30;54893;49.864;19.084;2023-06-04T22:32:13;12.59;59.02
68109;SHT30;54893;49.864;19.084;2023-06-04T22:37:14;12.46;60.35
68109;SHT30;54893;49.864;19.084;2023-06-04T22:42:14;12.38;60.78
68109;SHT30;54893;49.864;19.084;2023-06-04T22:47:15;12.10;62.77
68109;SHT30;54893;49.864;19.084;2023-06-04T22:52:15;11.99;63.47
68109;SHT30;54893;49.864;19.084;2023-06-04T22:57:16;11.85;63.03
68109;SHT30;54893;49.864;19.084;2023-06-04T23:02:16;11.61;67.02
68109;SHT30;54893;49.864;19.084;2023-06-04T23:07:17;11.56;65.54
68109;SHT30;54893;49.864;19.084;2023-06-04T23:12:17;11.53;66.08
68109;SHT30;54893;49.864;19.084;2023-06-04T23:17:17;11.54;67.02
68109;SHT30;54893;49.864;19.084;2023-06-04T23:22:18;11.38;67.20
68109;SHT30;54893;49.864;19.084;2023-06-04T23:27:19;11.31;67.97
68109;SHT30;54893;49.864;19.084;2023-06-04T23:32:19;11.17;67.75
68109;SHT30;54893;49.864;19.084;2023-06-04T23:37:20;11.20;64.11
68109;SHT30;54893;49.864;19.084;2023-06-04T23:42:21;11.22;66.78
68109;SHT30;54893;49.864;19.084;2023-06-04T23:47:21;11.26;65.69
68109;SHT30;54893;49.864;19.084;2023-06-04T23:52:21;11.30;66.24
68109;SHT30;54893;49.864;19.084;2023-06-04T23:57:22;11.27;62.96
